createdAt,value
2019-01-11T00:01:16.475Z,102252.19
2019-01-11T00:03:46.836Z,102248.03
2019-01-11T00:06:17.122Z,102242.46
2019-01-11T00:08:47.423Z,102238.36
2019-01-11T00:11:17.726Z,102235.69
2019-01-11T00:13:50.106Z,102236.83
2019-01-11T00:16:20.503Z,102237.97
2019-01-11T00:18:51.245Z,102240.77
2019-01-11T00:21:21.540Z,102239.55
2019-01-11T00:23:51.776Z,102239.31
2019-01-11T00:26:22.168Z,102240.43
2019-01-11T00:28:52.479Z,102235.50
2019-01-11T00:31:22.823Z,102225.92
2019-01-11T00:33:53.382Z,102231.91
2019-01-11T00:36:23.883Z,102232.53
2019-01-11T00:38:54.141Z,102229.77
2019-01-11T00:41:24.429Z,102224.70
2019-01-11T00:43:54.763Z,102225.27
2019-01-11T00:46:25.116Z,102224.50
2019-01-11T00:48:55.714Z,102222.64
2019-01-11T00:51:26.305Z,102217.08
2019-01-11T00:53:56.583Z,102212.42
2019-01-11T00:56:27.174Z,102212.64
2019-01-11T00:58:57.655Z,102209.52
2019-01-11T01:01:27.946Z,102208.86
2019-01-11T01:04:00.852Z,102200.11
2019-01-11T01:06:31.253Z,102199.45
2019-01-11T01:09:01.988Z,102196.91
2019-01-11T01:11:32.290Z,102193.88
2019-01-11T01:14:02.559Z,102191.19
2019-01-11T01:16:32.910Z,102188.63
2019-01-11T01:19:03.159Z,102181.87
2019-01-11T01:21:33.447Z,102188.56
2019-01-11T01:24:04.102Z,102188.41
2019-01-11T01:26:34.744Z,102186.07
2019-01-11T01:29:05.175Z,102179.86
2019-01-11T01:31:35.532Z,102171.84
2019-01-11T01:34:05.875Z,102173.64
2019-01-11T01:36:36.422Z,102174.33
2019-01-11T01:39:09.012Z,102168.29
2019-01-11T01:41:39.328Z,102168.63
2019-01-11T01:44:10.497Z,102160.40
2019-01-11T01:46:40.825Z,102162.55
2019-01-11T01:49:11.104Z,102160.03
2019-01-11T01:51:41.538Z,102162.66
2019-01-11T01:54:11.798Z,102164.14
2019-01-11T01:56:42.168Z,102147.69
2019-01-11T01:59:12.530Z,102155.17
2019-01-11T02:01:42.828Z,102151.20
2019-01-11T02:04:13.405Z,102145.92
2019-01-11T02:06:43.678Z,102150.66
2019-01-11T02:09:14.025Z,102155.09
2019-01-11T02:11:44.316Z,102144.42
2019-01-11T02:14:14.618Z,102141.45
2019-01-11T02:16:44.932Z,102137.87
2019-01-11T02:19:15.590Z,102129.36
2019-01-11T02:21:45.897Z,102126.18
2019-01-11T02:24:16.236Z,102125.17
2019-01-11T02:26:46.537Z,102099.23
2019-01-11T02:29:16.854Z,102102.13
2019-01-11T02:31:47.679Z,102102.50
2019-01-11T02:34:18.016Z,102111.44
2019-01-11T02:36:48.825Z,102130.38
2019-01-11T02:39:19.310Z,102121.39
2019-01-11T02:41:56.176Z,102124.08
2019-01-11T02:44:26.523Z,102126.25
2019-01-11T02:46:56.829Z,102135.12
2019-01-11T02:49:27.142Z,102132.38
2019-01-11T02:51:57.425Z,102129.14
2019-01-11T02:54:27.814Z,102127.69
2019-01-11T02:56:58.083Z,102126.67
2019-01-11T02:59:28.381Z,102123.17
2019-01-11T03:01:58.677Z,102132.11
2019-01-11T03:04:29.008Z,102125.39
2019-01-11T03:06:59.336Z,102126.94
2019-01-11T03:09:29.615Z,102113.70
2019-01-11T03:11:59.865Z,102114.50
2019-01-11T03:14:30.294Z,102108.22
2019-01-11T03:17:00.606Z,102103.85
2019-01-11T03:19:30.968Z,102104.81
2019-01-11T03:22:01.539Z,102107.13
2019-01-11T03:24:31.881Z,102093.83
2019-01-11T03:27:02.244Z,102093.19
2019-01-11T03:29:32.537Z,102098.69
2019-01-11T03:32:03.103Z,102096.86
2019-01-11T03:34:35.068Z,102089.63
2019-01-11T03:37:05.417Z,102083.12
2019-01-11T03:39:35.955Z,102081.45
2019-01-11T03:42:12.479Z,102082.36
2019-01-11T03:44:42.761Z,102067.72
2019-01-11T03:47:13.104Z,102068.63
2019-01-11T03:49:44.563Z,102059.75
2019-01-11T03:52:14.900Z,102056.77
2019-01-11T03:54:45.204Z,102053.22
2019-01-11T03:57:15.490Z,102058.66
2019-01-11T03:59:46.152Z,102051.00
2019-01-11T04:02:16.499Z,102061.73
2019-01-11T04:04:46.814Z,102057.25
2019-01-11T04:07:17.165Z,102050.73
2019-01-11T04:09:47.778Z,102044.58
2019-01-11T04:12:18.343Z,102036.89
2019-01-11T04:14:48.662Z,102035.81
2019-01-11T04:17:18.908Z,102028.02
2019-01-11T04:19:49.214Z,102031.82
2019-01-11T04:22:26.219Z,102015.71
2019-01-11T04:25:07.271Z,102010.59
2019-01-11T04:27:37.928Z,102018.00
2019-01-11T04:30:18.669Z,102011.96
2019-01-11T04:32:48.994Z,102014.07
2019-01-11T04:35:19.348Z,102002.83
2019-01-11T04:37:49.650Z,102009.28
2019-01-11T04:40:21.022Z,102012.41
2019-01-11T04:42:51.712Z,102014.23
2019-01-11T04:45:22.028Z,102011.75
2019-01-11T04:47:52.320Z,102010.58
2019-01-11T04:50:22.550Z,102013.81
2019-01-11T04:52:53.078Z,102008.70
2019-01-11T04:55:23.593Z,102003.70
2019-01-11T04:57:53.885Z,101998.40
2019-01-11T05:00:25.187Z,101992.67
2019-01-11T05:02:55.482Z,101987.94
2019-01-11T05:05:26.032Z,101974.83
2019-01-11T05:07:56.384Z,101981.78
2019-01-11T05:10:26.695Z,101980.50
2019-01-11T05:12:58.682Z,101986.78
2019-01-11T05:15:28.962Z,101983.86
2019-01-11T05:17:59.287Z,101977.28
2019-01-11T05:20:30.083Z,101979.84
2019-01-11T05:23:00.378Z,101969.73
2019-01-11T05:25:30.653Z,101978.63
2019-01-11T05:28:01.029Z,101976.05
2019-01-11T05:30:31.367Z,101976.23
2019-01-11T05:33:01.673Z,101974.29
2019-01-11T05:35:31.889Z,101970.13
2019-01-11T05:38:02.192Z,101962.28
2019-01-11T05:40:32.999Z,101963.41
2019-01-11T05:43:03.293Z,101965.29
2019-01-11T05:45:33.601Z,101964.23
2019-01-11T05:48:03.914Z,101958.45
2019-01-11T05:50:34.248Z,101957.52
2019-01-11T05:53:04.755Z,101953.41
2019-01-11T05:55:53.985Z,101955.50
2019-01-11T05:58:32.098Z,101955.26
2019-01-11T06:01:02.702Z,101954.22
2019-01-11T06:03:33.132Z,101946.38
2019-01-11T06:06:03.692Z,101944.79
2019-01-11T06:08:34.335Z,101942.65
2019-01-11T06:11:04.935Z,101933.22
2019-01-11T06:13:35.271Z,101922.21
2019-01-11T06:16:06.103Z,101922.73
2019-01-11T06:18:36.362Z,101910.02
2019-01-11T06:21:06.759Z,101906.80
2019-01-11T06:23:37.086Z,101899.39
2019-01-11T06:26:07.450Z,101895.42
2019-01-11T06:28:37.699Z,101893.19
2019-01-11T06:31:07.996Z,101886.27
2019-01-11T06:33:38.323Z,101881.33
2019-01-11T06:36:08.623Z,101883.21
2019-01-11T06:38:39.009Z,101882.08
2019-01-11T06:41:09.399Z,101882.83
2019-01-11T06:43:40.263Z,101883.05
2019-01-11T06:46:10.958Z,101875.78
2019-01-11T06:48:42.455Z,101878.22
2019-01-11T06:51:12.895Z,101880.39
2019-01-11T06:53:48.051Z,101878.02
2019-01-11T06:56:18.866Z,101881.81
2019-01-11T06:58:49.205Z,101874.00
2019-01-11T07:01:19.534Z,101878.50
2019-01-11T07:03:49.874Z,101873.96
2019-01-11T07:06:20.168Z,101878.15
2019-01-11T07:08:50.498Z,101880.74
2019-01-11T07:11:20.812Z,101887.16
2019-01-11T07:13:51.107Z,101884.53
2019-01-11T07:16:21.465Z,101883.84
2019-01-11T07:18:52.141Z,101883.28
2019-01-11T07:21:22.451Z,101883.95
2019-01-11T07:23:52.818Z,101881.34
2019-01-11T07:26:23.504Z,101881.89
2019-01-11T07:28:53.761Z,101880.52
2019-01-11T07:31:26.956Z,101877.48
2019-01-11T07:33:58.646Z,101882.05
2019-01-11T07:36:40.403Z,101872.33
2019-01-11T07:39:27.017Z,101876.97
2019-01-11T07:41:58.323Z,101870.73
2019-01-11T07:44:28.814Z,101879.00
2019-01-11T07:46:59.556Z,101872.75
2019-01-11T07:49:30.086Z,101868.98
2019-01-11T07:52:00.356Z,101861.44
2019-01-11T07:54:30.639Z,101864.22
2019-01-11T07:57:01.061Z,101861.98
2019-01-11T07:59:31.311Z,101863.39
2019-01-11T08:02:01.573Z,101868.06
2019-01-11T08:04:32.239Z,101866.09
2019-01-11T08:07:02.615Z,101862.13
2019-01-11T08:09:33.011Z,101864.58
2019-01-11T08:12:03.307Z,101853.98
2019-01-11T08:14:33.872Z,101857.31
2019-01-11T08:17:04.159Z,101858.75
2019-01-11T08:19:34.608Z,101852.79
2019-01-11T08:22:04.985Z,101844.98
2019-01-11T08:24:35.284Z,101850.92
2019-01-11T08:27:05.655Z,101845.84
2019-01-11T08:29:36.009Z,101841.05
2019-01-11T08:32:06.286Z,101835.77
2019-01-11T08:34:36.609Z,101840.56
2019-01-11T08:37:06.890Z,101842.75
2019-01-11T08:39:37.205Z,101839.40
2019-01-11T08:42:07.505Z,101836.06
2019-01-11T08:44:37.788Z,101837.41
2019-01-11T08:47:08.113Z,101833.98
2019-01-11T08:49:39.038Z,101838.58
2019-01-11T08:52:09.352Z,101841.42
2019-01-11T08:54:39.679Z,101842.78
2019-01-11T08:57:10.251Z,101835.06
2019-01-11T08:59:40.619Z,101842.03
2019-01-11T09:02:10.972Z,101839.64
2019-01-11T09:04:41.284Z,101837.79
2019-01-11T09:07:11.533Z,101831.25
2019-01-11T09:09:41.871Z,101834.22
2019-01-11T09:12:15.187Z,101839.39
2019-01-11T09:14:47.882Z,101836.84
2019-01-11T09:17:19.473Z,101835.23
2019-01-11T09:19:49.803Z,101841.48
2019-01-11T09:22:20.482Z,101840.80
2019-01-11T09:24:50.760Z,101838.23
2019-01-11T09:27:21.131Z,101836.84
2019-01-11T09:29:51.450Z,101837.48
2019-01-11T09:32:22.098Z,101830.95
2019-01-11T09:34:53.729Z,101835.92
2019-01-11T09:37:23.967Z,101839.18
2019-01-11T09:39:54.550Z,101836.11
2019-01-11T09:42:24.738Z,101839.85
2019-01-11T09:44:55.222Z,101843.33
2019-01-11T09:47:25.900Z,101832.45
2019-01-11T09:49:56.653Z,101842.12
2019-01-11T09:52:27.221Z,101836.86
2019-01-11T09:54:57.522Z,101831.88
2019-01-11T09:57:28.052Z,101831.44
2019-01-11T09:59:58.721Z,101829.39
2019-01-11T10:02:40.237Z,101831.31
2019-01-11T10:05:11.773Z,101824.83
2019-01-11T10:07:42.105Z,101822.25
2019-01-11T10:10:15.159Z,101821.11
2019-01-11T10:12:45.469Z,101817.23
2019-01-11T10:15:16.557Z,101826.54
2019-01-11T10:17:49.288Z,101819.58
2019-01-11T10:20:19.981Z,101815.43
2019-01-11T10:22:50.239Z,101809.28
2019-01-11T10:25:21.430Z,101804.94
2019-01-11T10:27:51.822Z,101802.80
2019-01-11T10:30:23.655Z,101796.47
2019-01-11T10:32:55.910Z,101800.23
2019-01-11T10:35:26.336Z,101796.97
2019-01-11T10:37:56.611Z,101797.89
2019-01-11T10:40:26.859Z,101791.72
2019-01-11T10:42:57.741Z,101783.26
2019-01-11T10:45:28.029Z,101783.42
2019-01-11T10:47:59.011Z,101782.67
2019-01-11T10:50:29.285Z,101789.34
2019-01-11T10:52:59.596Z,101785.59
2019-01-11T10:55:29.942Z,101781.25
2019-01-11T10:58:00.245Z,101781.30
2019-01-11T11:00:31.529Z,101787.08
2019-01-11T11:03:01.833Z,101789.53
2019-01-11T11:05:32.473Z,101787.86
2019-01-11T11:08:03.090Z,101784.31
2019-01-11T11:10:33.406Z,101792.27
2019-01-11T11:13:03.697Z,101784.44
2019-01-11T11:15:34.110Z,101793.82
2019-01-11T11:18:04.741Z,101788.13
2019-01-11T11:20:35.031Z,101779.04
2019-01-11T11:23:05.353Z,101782.55
2019-01-11T11:25:35.697Z,101780.98
2019-01-11T11:28:06.011Z,101772.75
2019-01-11T11:30:36.287Z,101770.79
2019-01-11T11:33:06.717Z,101769.51
2019-01-11T11:35:37.029Z,101768.22
2019-01-11T11:38:07.702Z,101765.63
2019-01-11T11:40:37.950Z,101756.55
2019-01-11T11:43:08.203Z,101757.98
2019-01-11T11:45:38.736Z,101740.32
2019-01-11T11:48:09.028Z,101740.30
2019-01-11T11:50:39.351Z,101736.70
2019-01-11T11:53:17.586Z,101733.30
2019-01-11T11:55:47.873Z,101729.11
2019-01-11T11:58:18.156Z,101732.36
2019-01-11T12:00:48.534Z,101731.37
2019-01-11T12:03:18.861Z,101730.84
2019-01-11T12:05:49.457Z,101731.98
2019-01-11T12:08:19.732Z,101727.92
2019-01-11T12:10:50.040Z,101723.88
2019-01-11T12:13:20.331Z,101724.00
2019-01-11T12:15:50.609Z,101712.96
2019-01-11T12:18:20.875Z,101707.11
2019-01-11T12:20:51.235Z,101703.04
2019-01-11T12:23:21.914Z,101703.70
2019-01-11T12:25:52.303Z,101707.73
2019-01-11T12:28:22.602Z,101703.40
2019-01-11T12:30:52.886Z,101700.92
2019-01-11T12:33:23.530Z,101698.69
2019-01-11T12:35:53.863Z,101700.83
2019-01-11T12:38:24.531Z,101693.51
2019-01-11T12:40:54.846Z,101685.91
2019-01-11T12:43:25.140Z,101686.75
2019-01-11T12:45:55.425Z,101680.78
2019-01-11T12:48:25.740Z,101664.72
2019-01-11T12:50:56.007Z,101660.02
2019-01-11T12:53:26.331Z,101662.93
2019-01-11T12:55:56.643Z,101656.87
2019-01-11T12:58:26.913Z,101647.80
2019-01-11T13:00:57.224Z,101658.67
2019-01-11T13:03:27.542Z,101639.28
2019-01-11T13:05:57.798Z,101645.94
2019-01-11T13:08:28.142Z,101646.10
2019-01-11T13:10:58.372Z,101637.31
2019-01-11T13:13:28.672Z,101635.81
2019-01-11T13:15:59.030Z,101638.72
2019-01-11T13:18:29.790Z,101634.48
2019-01-11T13:21:00.473Z,101637.23
2019-01-11T13:23:30.731Z,101640.30
2019-01-11T13:26:01.086Z,101635.45
2019-01-11T13:28:31.374Z,101643.27
2019-01-11T13:31:01.778Z,101638.45
2019-01-11T13:33:32.667Z,101638.43
2019-01-11T13:36:04.885Z,101648.98
2019-01-11T13:38:35.165Z,101635.65
2019-01-11T13:41:05.747Z,101631.44
2019-01-11T13:43:37.301Z,101637.96
2019-01-11T13:46:07.650Z,101638.45
2019-01-11T13:48:37.941Z,101637.96
2019-01-11T13:51:08.230Z,101630.34
2019-01-11T13:53:38.611Z,101632.60
2019-01-11T13:56:08.912Z,101641.09
2019-01-11T13:58:39.276Z,101636.66
2019-01-11T14:01:09.589Z,101631.78
2019-01-11T14:03:39.926Z,101635.70
2019-01-11T14:06:10.220Z,101645.78
2019-01-11T14:08:40.896Z,101653.92
2019-01-11T14:11:11.253Z,101653.08
2019-01-11T14:13:41.521Z,101646.89
2019-01-11T14:16:11.862Z,101655.66
2019-01-11T14:18:42.206Z,101664.43
2019-01-11T14:21:12.540Z,101649.31
2019-01-11T14:23:42.859Z,101656.97
2019-01-11T14:26:13.186Z,101649.52
2019-01-11T14:28:43.526Z,101657.28
2019-01-11T14:31:13.818Z,101659.86
2019-01-11T14:33:44.146Z,101655.49
2019-01-11T14:36:14.591Z,101659.86
2019-01-11T14:38:44.875Z,101658.47
2019-01-11T14:41:16.023Z,101659.76
2019-01-11T14:43:46.723Z,101658.23
2019-01-11T14:46:17.014Z,101652.08
2019-01-11T14:48:47.375Z,101659.06
2019-01-11T14:51:17.645Z,101662.28
2019-01-11T14:53:47.964Z,101667.80
2019-01-11T14:56:18.211Z,101666.00
2019-01-11T14:58:48.469Z,101662.74
2019-01-11T15:01:18.680Z,101654.59
2019-01-11T15:03:49.270Z,101658.84
2019-01-11T15:06:19.523Z,101648.28
2019-01-11T15:08:49.849Z,101658.69
2019-01-11T15:11:20.144Z,101658.05
2019-01-11T15:13:50.433Z,101654.59
2019-01-11T15:16:20.695Z,101655.27
2019-01-11T15:18:50.958Z,101637.31
2019-01-11T15:21:21.265Z,101648.56
2019-01-11T15:23:51.533Z,101654.00
2019-01-11T15:26:21.869Z,101654.97
2019-01-11T15:28:52.136Z,101657.06
2019-01-11T15:31:22.468Z,101665.20
2019-01-11T15:33:52.736Z,101658.35
2019-01-11T15:36:23.204Z,101661.63
2019-01-11T15:38:53.489Z,101675.95
2019-01-11T15:41:23.817Z,101668.13
2019-01-11T15:43:54.148Z,101666.98
2019-01-11T15:46:24.699Z,101665.36
2019-01-11T15:48:55.176Z,101670.40
2019-01-11T15:51:29.988Z,101664.98
2019-01-11T15:54:01.814Z,101672.33
2019-01-11T15:56:32.066Z,101669.02
2019-01-11T15:59:02.342Z,101667.25
2019-01-11T16:01:32.950Z,101665.42
2019-01-11T16:04:09.203Z,101665.09
2019-01-11T16:06:44.369Z,101662.81
2019-01-11T16:10:01.173Z,101666.55
2019-01-11T16:12:41.163Z,101669.47
2019-01-11T16:15:26.163Z,101674.18
2019-01-11T16:18:00.250Z,101669.30
2019-01-11T16:20:30.523Z,101675.02
2019-01-11T16:23:00.781Z,101675.31
2019-01-11T16:25:31.191Z,101688.85
2019-01-11T16:28:02.079Z,101682.47
2019-01-11T16:30:32.810Z,101684.59
2019-01-11T16:33:03.374Z,101686.05
2019-01-11T16:35:33.675Z,101683.12
2019-01-11T16:38:03.965Z,101689.42
2019-01-11T16:40:34.195Z,101680.95
2019-01-11T16:43:04.512Z,101683.55
2019-01-11T16:45:35.267Z,101683.03
2019-01-11T16:48:05.588Z,101692.12
2019-01-11T16:50:35.858Z,101692.45
2019-01-11T16:53:10.069Z,101688.72
2019-01-11T16:55:40.346Z,101700.38
2019-01-11T16:58:10.615Z,101700.50
2019-01-11T17:00:41.126Z,101713.56
2019-01-11T17:03:11.385Z,101707.34
2019-01-11T17:05:41.681Z,101708.14
2019-01-11T17:08:11.989Z,101704.59
2019-01-11T17:10:42.241Z,101712.43
2019-01-11T17:13:13.065Z,101711.59
2019-01-11T17:15:43.624Z,101708.73
2019-01-11T17:18:13.919Z,101706.41
2019-01-11T17:20:44.205Z,101712.08
2019-01-11T17:23:15.392Z,101716.47
2019-01-11T17:25:45.612Z,101707.09
2019-01-11T17:28:17.075Z,101707.73
2019-01-11T17:30:47.439Z,101708.53
2019-01-11T17:33:17.684Z,101706.09
2019-01-11T17:35:47.969Z,101716.98
2019-01-11T17:38:18.225Z,101712.59
2019-01-11T17:40:48.833Z,101713.39
2019-01-11T17:43:19.352Z,101707.70
2019-01-11T17:45:49.715Z,101717.30
2019-01-11T17:48:20.023Z,101723.16
2019-01-11T17:50:50.370Z,101724.70
2019-01-11T17:53:20.619Z,101716.94
2019-01-11T17:55:50.934Z,101716.13
2019-01-11T17:58:21.440Z,101719.81
2019-01-11T18:00:51.833Z,101720.49
2019-01-11T18:03:22.083Z,101725.02
2019-01-11T18:05:52.396Z,101717.56
2019-01-11T18:08:22.713Z,101717.52
2019-01-11T18:10:53.252Z,101722.11
2019-01-11T18:13:23.575Z,101718.00
2019-01-11T18:15:54.249Z,101713.80
2019-01-11T18:18:24.538Z,101722.88
2019-01-11T18:20:54.850Z,101719.78
2019-01-11T18:23:25.259Z,101717.66
2019-01-11T18:25:55.541Z,101715.86
2019-01-11T18:28:25.991Z,101721.22
2019-01-11T18:30:56.390Z,101723.79
2019-01-11T18:33:26.727Z,101731.89
2019-01-11T18:35:57.449Z,101733.84
2019-01-11T18:38:27.738Z,101728.45
2019-01-11T18:40:57.941Z,101727.83
2019-01-11T18:43:28.477Z,101733.67
2019-01-11T18:45:58.828Z,101738.66
2019-01-11T18:48:29.338Z,101745.66
2019-01-11T18:50:59.584Z,101753.08
2019-01-11T18:53:29.809Z,101748.63
2019-01-11T18:56:05.327Z,101746.05
2019-01-11T18:58:32.107Z,101749.59
2019-01-11T19:01:02.674Z,101752.53
2019-01-11T19:03:32.983Z,101758.48
2019-01-11T19:06:03.267Z,101757.82
2019-01-11T19:08:33.580Z,101762.95
2019-01-11T19:11:04.052Z,101760.75
2019-01-11T19:13:34.308Z,101757.75
2019-01-11T19:16:04.606Z,101755.80
2019-01-11T19:18:34.892Z,101758.55
2019-01-11T19:21:08.754Z,101752.69
2019-01-11T19:23:39.102Z,101764.06
2019-01-11T19:26:09.473Z,101770.03
2019-01-11T19:28:39.794Z,101766.42
2019-01-11T19:31:10.107Z,101768.70
2019-01-11T19:33:40.349Z,101772.11
2019-01-11T19:36:10.908Z,101769.48
2019-01-11T19:38:41.247Z,101764.19
2019-01-11T19:41:11.499Z,101763.87
2019-01-11T19:43:41.883Z,101773.11
2019-01-11T19:46:12.175Z,101771.50
2019-01-11T19:48:42.390Z,101763.70
2019-01-11T19:51:12.804Z,101778.81
2019-01-11T19:53:43.048Z,101772.48
2019-01-11T19:56:13.286Z,101772.19
2019-01-11T19:58:43.615Z,101776.56
2019-01-11T20:01:13.864Z,101786.92
2019-01-11T20:03:44.141Z,101782.70
2019-01-11T20:06:14.565Z,101789.87
2019-01-11T20:08:44.868Z,101787.92
2019-01-11T20:11:15.598Z,101790.31
2019-01-11T20:13:45.937Z,101783.88
2019-01-11T20:16:16.226Z,101789.36
2019-01-11T20:18:46.478Z,101778.47
2019-01-11T20:21:17.007Z,101790.64
2019-01-11T20:23:47.315Z,101793.22
2019-01-11T20:26:17.864Z,101791.26
2019-01-11T20:28:48.210Z,101790.94
2019-01-11T20:31:18.517Z,101791.45
2019-01-11T20:33:49.422Z,101797.78
2019-01-11T20:36:19.733Z,101801.19
2019-01-11T20:38:49.957Z,101794.67
2019-01-11T20:41:20.594Z,101808.95
2019-01-11T20:43:50.910Z,101806.26
2019-01-11T20:46:21.399Z,101807.94
2019-01-11T20:48:51.732Z,101803.72
2019-01-11T20:51:22.173Z,101806.56
2019-01-11T20:53:52.439Z,101807.12
2019-01-11T20:56:22.647Z,101808.86
2019-01-11T20:58:53.032Z,101809.20
2019-01-11T21:01:23.453Z,101808.53
2019-01-11T21:03:54.137Z,101815.67
2019-01-11T21:06:24.433Z,101817.45
2019-01-11T21:08:54.980Z,101810.64
2019-01-11T21:11:25.239Z,101812.94
2019-01-11T21:13:55.821Z,101808.72
2019-01-11T21:16:26.061Z,101801.74
2019-01-11T21:18:56.304Z,101803.18
2019-01-11T21:21:26.972Z,101801.73
2019-01-11T21:23:57.262Z,101807.25
2019-01-11T21:26:27.511Z,101807.37
2019-01-11T21:28:57.731Z,101800.56
2019-01-11T21:31:27.985Z,101800.60
2019-01-11T21:33:58.250Z,101799.80
2019-01-11T21:36:28.659Z,101800.23
2019-01-11T21:38:58.885Z,101794.09
2019-01-11T21:41:29.175Z,101789.04
2019-01-11T21:43:59.465Z,101800.27
2019-01-11T21:46:29.920Z,101798.94
2019-01-11T21:49:00.174Z,101796.17
2019-01-11T21:51:31.610Z,101798.45
2019-01-11T21:54:03.109Z,101794.60
2019-01-11T21:56:33.691Z,101794.09
2019-01-11T21:59:03.944Z,101797.83
2019-01-11T22:01:34.273Z,101792.49
2019-01-11T22:04:04.511Z,101804.84
2019-01-11T22:06:34.865Z,101798.84
2019-01-11T22:09:08.099Z,101805.63
2019-01-11T22:11:38.491Z,101798.96
2019-01-11T22:14:09.444Z,101799.77
2019-01-11T22:16:39.698Z,101797.23
2019-01-11T22:19:10.021Z,101795.72
2019-01-11T22:21:40.274Z,101794.77
2019-01-11T22:24:10.568Z,101797.06
2019-01-11T22:26:40.826Z,101800.80
2019-01-11T22:29:11.154Z,101802.22
2019-01-11T22:31:41.485Z,101795.13
2019-01-11T22:34:11.816Z,101796.89
2019-01-11T22:36:42.056Z,101794.95
2019-01-11T22:39:12.417Z,101790.84
2019-01-11T22:41:43.295Z,101788.57
2019-01-11T22:44:13.538Z,101788.22
2019-01-11T22:46:43.882Z,101786.81
2019-01-11T22:49:14.350Z,101789.64
2019-01-11T22:51:44.670Z,101782.62
2019-01-11T22:54:14.981Z,101788.11
2019-01-11T22:56:45.550Z,101787.34
2019-01-11T22:59:15.782Z,101783.27
2019-01-11T23:02:28.576Z,101776.91
2019-01-11T23:05:00.563Z,101773.98
2019-01-11T23:08:00.258Z,101767.83
2019-01-11T23:11:28.278Z,101770.94
2019-01-11T23:13:58.609Z,101769.45
2019-01-11T23:16:43.497Z,101771.56
2019-01-11T23:19:14.024Z,101771.88
2019-01-11T23:21:44.282Z,101768.64
2019-01-11T23:27:00.619Z,101771.05
2019-01-11T23:29:31.424Z,101770.72
2019-01-11T23:32:01.949Z,101770.56
2019-01-11T23:34:32.263Z,101776.44
2019-01-11T23:37:47.949Z,101774.98
2019-01-11T23:40:18.846Z,101767.50
2019-01-11T23:42:49.116Z,101769.15
2019-01-11T23:45:19.506Z,101774.64
2019-01-11T23:47:49.848Z,101778.67
2019-01-11T23:50:20.082Z,101778.53
2019-01-11T23:52:50.370Z,101775.92
2019-01-11T23:55:20.742Z,101773.30
2019-01-11T23:57:51.343Z,101771.38
